Página principal
METAR-TAF:

METAR-TAF

Aeroportos :

Chita, Rússia

latitude: 52-05N, longitude: 113-29E, altura: 685 m

Observação actual do tempo

O boletim foi feito há 41 minutos, às 01:00 UTC
Vento 2 kt com direcção variável
Temperatura 0°C
Humidade 59%
Pressão 1019 hPa
Visibilidade 10 km ou mais

METAR: UIAA 180100Z VRB01MPS 9999 NSC M00/M07 Q1019 R29/CLRD70 NOSIG RMK QFE706/0941

Hora: 10:41 (01:41 UTC)

Previsão

O boletim foi feito há 2 horas e 41 minutos, às 23:00 UTC
Previsão válida de 18 às 00 UTC a 18 às 24 UTC
Vento 6 kt de su-sudoeste
Visibilidade 10 km ou mais
Nuvens fragmentadasa uma altura de 3000 ft, Cumulonimbus.
Temporariamente
de 18 às 04 UTC a 18 às 15 UTC
Vento 12 kt de noroeste com rajadas de 23 kt

TAF: UIAA 172300Z 1800/1824 21003MPS 9999 BKN030CB TEMPO 1804/1815 31006G12MPS

Observações e previsões do tempo de mais de 4000 aeroportos (mensagens METAR e TAF).

As estações disponíveis são os pontos amarelos e vermelhos sobre o mapa.

Mova o rato sobre o mapa para ver o nome da estação.

Depois clique no ponto para visualizar as observações e previsões meteorológicas.

Para alterar o mapa : clique nos botões verdes com uma cruz preta para aumentar o zoom; no botão verde com uma pitada de zoom; ou nas setas verdes para mapas adjacentes.


METAR-TAF: